Weather at Little Sahara Medical Helipad #1

Public forecast

Using degrees Fahrenheit for public forecast. Weather courtesy of forecast.io.

Closest aviation weather report (METAR) to Little Sahara Medical Helipad #1

Report is more than 6 hours old.

Closest report is Delta Municipal Airport, 22.8 nm (42.2 km) SSW. Retrieved 2022/01/16 11:10 UTC (6 days ago):

KDTA 161110Z AUTO 07011KT 7SM CLR M05/M06 A3031 RMK AO1

Closest aviation forecast (TAF) to Little Sahara Medical Helipad #1

Closest forecast is Provo-Utah Lake International Airport, 39.9 nm (73.9 km) NE. Retrieved 2022/01/22 18:33 UTC (3 hours ago):

TAF KPVU 221730Z 2218/2318 32007KT P6SM FEW250 FM230300 VRB03KT P6SM SKC